sensor_id;sensor_type;location;lat;lon;timestamp;temperature;humidity
74792;SHT30;63319;46.046;17.802;2024-02-26T00:02:13;9.58;91.66
74792;SHT30;63319;46.046;17.802;2024-02-26T00:05:17;9.54;92.06
74792;SHT30;63319;46.046;17.802;2024-02-26T00:08:20;9.65;91.50
74792;SHT30;63319;46.046;17.802;2024-02-26T00:11:23;9.59;91.58
74792;SHT30;63319;46.046;17.802;2024-02-26T00:14:26;9.69;91.32
74792;SHT30;63319;46.046;17.802;2024-02-26T00:17:29;9.57;91.33
74792;SHT30;63319;46.046;17.802;2024-02-26T00:20:32;9.59;91.15
74792;SHT30;63319;46.046;17.802;2024-02-26T00:23:35;9.45;91.96
74792;SHT30;63319;46.046;17.802;2024-02-26T00:26:38;9.47;91.83
74792;SHT30;63319;46.046;17.802;2024-02-26T00:29:41;9.45;91.68
74792;SHT30;63319;46.046;17.802;2024-02-26T00:32:44;9.30;92.56
74792;SHT30;63319;46.046;17.802;2024-02-26T00:35:47;9.38;92.59
74792;SHT30;63319;46.046;17.802;2024-02-26T00:38:50;9.57;91.50
74792;SHT30;63319;46.046;17.802;2024-02-26T00:41:54;9.51;91.52
74792;SHT30;63319;46.046;17.802;2024-02-26T00:44:56;9.26;92.48
74792;SHT30;63319;46.046;17.802;2024-02-26T00:48:00;9.19;92.70
74792;SHT30;63319;46.046;17.802;2024-02-26T00:51:07;9.19;93.38
74792;SHT30;63319;46.046;17.802;2024-02-26T00:54:10;9.14;93.48
74792;SHT30;63319;46.046;17.802;2024-02-26T00:57:14;9.02;93.72
74792;SHT30;63319;46.046;17.802;2024-02-26T01:00:17;9.04;93.82
74792;SHT30;63319;46.046;17.802;2024-02-26T01:03:20;9.13;93.80
74792;SHT30;63319;46.046;17.802;2024-02-26T01:06:23;9.34;92.68
74792;SHT30;63319;46.046;17.802;2024-02-26T01:09:27;9.50;91.72
74792;SHT30;63319;46.046;17.802;2024-02-26T01:12:30;9.47;91.71
74792;SHT30;63319;46.046;17.802;2024-02-26T01:15:33;9.44;91.42
74792;SHT30;63319;46.046;17.802;2024-02-26T01:18:36;9.35;92.17
74792;SHT30;63319;46.046;17.802;2024-02-26T01:21:39;9.45;91.75
74792;SHT30;63319;46.046;17.802;2024-02-26T01:24:42;9.42;91.70
74792;SHT30;63319;46.046;17.802;2024-02-26T01:27:45;9.48;91.66
74792;SHT30;63319;46.046;17.802;2024-02-26T01:30:49;9.34;91.97
74792;SHT30;63319;46.046;17.802;2024-02-26T01:33:52;9.31;92.25
74792;SHT30;63319;46.046;17.802;2024-02-26T01:36:56;9.41;91.63
74792;SHT30;63319;46.046;17.802;2024-02-26T01:39:59;9.57;91.40
74792;SHT30;63319;46.046;17.802;2024-02-26T01:43:02;9.44;91.27
74792;SHT30;63319;46.046;17.802;2024-02-26T01:46:05;9.57;90.82
74792;SHT30;63319;46.046;17.802;2024-02-26T01:49:12;9.52;91.20
74792;SHT30;63319;46.046;17.802;2024-02-26T01:52:16;9.37;91.51
74792;SHT30;63319;46.046;17.802;2024-02-26T01:55:20;9.31;91.08
74792;SHT30;63319;46.046;17.802;2024-02-26T01:58:23;9.45;91.14
74792;SHT30;63319;46.046;17.802;2024-02-26T02:01:27;9.31;91.18
74792;SHT30;63319;46.046;17.802;2024-02-26T02:04:31;9.35;91.47
74792;SHT30;63319;46.046;17.802;2024-02-26T02:07:35;9.37;91.52
74792;SHT30;63319;46.046;17.802;2024-02-26T02:10:38;9.24;91.80
74792;SHT30;63319;46.046;17.802;2024-02-26T02:13:42;9.38;91.71
74792;SHT30;63319;46.046;17.802;2024-02-26T02:16:45;9.13;92.30
74792;SHT30;63319;46.046;17.802;2024-02-26T02:19:48;9.12;92.79
74792;SHT30;63319;46.046;17.802;2024-02-26T02:22:51;9.02;92.67
74792;SHT30;63319;46.046;17.802;2024-02-26T02:25:56;9.07;92.90
74792;SHT30;63319;46.046;17.802;2024-02-26T02:29:00;9.21;92.75
74792;SHT30;63319;46.046;17.802;2024-02-26T02:32:04;9.45;91.61
74792;SHT30;63319;46.046;17.802;2024-02-26T02:35:07;9.38;91.67
74792;SHT30;63319;46.046;17.802;2024-02-26T02:38:10;9.50;91.23
74792;SHT30;63319;46.046;17.802;2024-02-26T02:41:13;9.42;91.12
74792;SHT30;63319;46.046;17.802;2024-02-26T02:44:17;9.63;90.63
74792;SHT30;63319;46.046;17.802;2024-02-26T02:47:19;9.45;91.21
74792;SHT30;63319;46.046;17.802;2024-02-26T02:50:23;9.51;91.18
74792;SHT30;63319;46.046;17.802;2024-02-26T02:53:26;9.45;91.35
74792;SHT30;63319;46.046;17.802;2024-02-26T02:56:29;9.30;91.86
74792;SHT30;63319;46.046;17.802;2024-02-26T02:59:32;9.38;91.72
74792;SHT30;63319;46.046;17.802;2024-02-26T03:02:35;9.55;91.33
74792;SHT30;63319;46.046;17.802;2024-02-26T03:05:38;9.47;91.12
74792;SHT30;63319;46.046;17.802;2024-02-26T03:08:41;9.48;91.07
74792;SHT30;63319;46.046;17.802;2024-02-26T03:11:45;9.45;91.35
74792;SHT30;63319;46.046;17.802;2024-02-26T03:14:48;9.47;91.45
74792;SHT30;63319;46.046;17.802;2024-02-26T03:17:51;9.45;91.59
74792;SHT30;63319;46.046;17.802;2024-02-26T03:20:54;9.45;91.40
74792;SHT30;63319;46.046;17.802;2024-02-26T03:23:57;9.42;91.70
74792;SHT30;63319;46.046;17.802;2024-02-26T03:27:00;9.23;92.04
74792;SHT30;63319;46.046;17.802;2024-02-26T03:30:04;9.28;92.03
74792;SHT30;63319;46.046;17.802;2024-02-26T03:33:07;9.40;91.76
74792;SHT30;63319;46.046;17.802;2024-02-26T03:36:10;9.44;91.56
74792;SHT30;63319;46.046;17.802;2024-02-26T03:39:13;9.42;91.57
74792;SHT30;63319;46.046;17.802;2024-02-26T03:42:16;9.48;91.27
74792;SHT30;63319;46.046;17.802;2024-02-26T03:45:20;9.31;91.83
74792;SHT30;63319;46.046;17.802;2024-02-26T03:48:23;9.31;91.96
74792;SHT30;63319;46.046;17.802;2024-02-26T03:51:26;9.17;92.48
74792;SHT30;63319;46.046;17.802;2024-02-26T03:54:33;9.31;92.56
74792;SHT30;63319;46.046;17.802;2024-02-26T03:57:37;9.44;91.85
74792;SHT30;63319;46.046;17.802;2024-02-26T04:00:39;9.40;91.78
74792;SHT30;63319;46.046;17.802;2024-02-26T04:03:42;9.26;92.21
74792;SHT30;63319;46.046;17.802;2024-02-26T04:06:46;9.41;91.33
74792;SHT30;63319;46.046;17.802;2024-02-26T04:09:50;9.40;92.23
74792;SHT30;63319;46.046;17.802;2024-02-26T04:12:53;9.40;91.63
74792;SHT30;63319;46.046;17.802;2024-02-26T04:15:56;9.33;92.11
74792;SHT30;63319;46.046;17.802;2024-02-26T04:19:00;9.28;92.31
74792;SHT30;63319;46.046;17.802;2024-02-26T04:22:03;9.45;91.64
74792;SHT30;63319;46.046;17.802;2024-02-26T04:25:06;9.47;91.19
74792;SHT30;63319;46.046;17.802;2024-02-26T04:28:10;9.45;91.48
74792;SHT30;63319;46.046;17.802;2024-02-26T04:31:13;9.26;92.22
74792;SHT30;63319;46.046;17.802;2024-02-26T04:34:15;9.12;92.81
74792;SHT30;63319;46.046;17.802;2024-02-26T04:37:18;9.31;92.55
74792;SHT30;63319;46.046;17.802;2024-02-26T04:40:21;9.27;92.02
74792;SHT30;63319;46.046;17.802;2024-02-26T04:43:24;9.41;91.88
74792;SHT30;63319;46.046;17.802;2024-02-26T04:46:27;9.34;92.09
74792;SHT30;63319;46.046;17.802;2024-02-26T04:49:31;9.33;92.32
74792;SHT30;63319;46.046;17.802;2024-02-26T04:52:34;9.19;92.52
74792;SHT30;63319;46.046;17.802;2024-02-26T04:55:37;9.33;91.82
74792;SHT30;63319;46.046;17.802;2024-02-26T04:58:40;9.04;92.54
74792;SHT30;63319;46.046;17.802;2024-02-26T05:01:43;9.30;92.06
74792;SHT30;63319;46.046;17.802;2024-02-26T05:04:46;9.09;92.76
74792;SHT30;63319;46.046;17.802;2024-02-26T05:07:49;9.07;92.81
74792;SHT30;63319;46.046;17.802;2024-02-26T05:10:52;9.35;92.40
74792;SHT30;63319;46.046;17.802;2024-02-26T05:13:55;9.27;92.44
74792;SHT30;63319;46.046;17.802;2024-02-26T05:16:58;9.19;92.86
74792;SHT30;63319;46.046;17.802;2024-02-26T05:20:01;9.24;92.91
74792;SHT30;63319;46.046;17.802;2024-02-26T05:23:05;9.13;93.12
74792;SHT30;63319;46.046;17.802;2024-02-26T05:26:08;9.04;93.53
74792;SHT30;63319;46.046;17.802;2024-02-26T05:29:11;9.12;92.83
74792;SHT30;63319;46.046;17.802;2024-02-26T05:32:14;9.38;92.38
74792;SHT30;63319;46.046;17.802;2024-02-26T05:35:17;9.28;92.37
74792;SHT30;63319;46.046;17.802;2024-02-26T05:38:20;9.57;91.72
74792;SHT30;63319;46.046;17.802;2024-02-26T05:41:23;9.45;91.65
74792;SHT30;63319;46.046;17.802;2024-02-26T05:44:26;9.37;91.93
74792;SHT30;63319;46.046;17.802;2024-02-26T05:47:29;9.37;91.71
74792;SHT30;63319;46.046;17.802;2024-02-26T05:50:32;9.58;91.16
74792;SHT30;63319;46.046;17.802;2024-02-26T05:53:35;9.54;91.22
74792;SHT30;63319;46.046;17.802;2024-02-26T05:56:38;9.61;90.76
74792;SHT30;63319;46.046;17.802;2024-02-26T05:59:41;9.57;90.91
74792;SHT30;63319;46.046;17.802;2024-02-26T06:02:44;9.71;90.16
74792;SHT30;63319;46.046;17.802;2024-02-26T06:05:47;9.71;90.07
74792;SHT30;63319;46.046;17.802;2024-02-26T06:08:50;9.62;90.39
74792;SHT30;63319;46.046;17.802;2024-02-26T06:11:54;9.59;90.48
74792;SHT30;63319;46.046;17.802;2024-02-26T06:14:57;9.61;90.39
74792;SHT30;63319;46.046;17.802;2024-02-26T06:18:04;9.74;90.23
74792;SHT30;63319;46.046;17.802;2024-02-26T06:21:11;9.79;90.28
74792;SHT30;63319;46.046;17.802;2024-02-26T06:24:14;9.74;89.99
74792;SHT30;63319;46.046;17.802;2024-02-26T06:27:17;9.79;89.84
74792;SHT30;63319;46.046;17.802;2024-02-26T06:30:20;9.99;89.32
74792;SHT30;63319;46.046;17.802;2024-02-26T06:33:23;10.05;88.57
74792;SHT30;63319;46.046;17.802;2024-02-26T06:36:26;9.99;89.39
74792;SHT30;63319;46.046;17.802;2024-02-26T06:39:29;9.90;89.73
74792;SHT30;63319;46.046;17.802;2024-02-26T06:42:32;9.92;89.28
74792;SHT30;63319;46.046;17.802;2024-02-26T06:45:36;9.95;89.05
74792;SHT30;63319;46.046;17.802;2024-02-26T06:48:39;9.90;89.49
74792;SHT30;63319;46.046;17.802;2024-02-26T06:51:43;9.88;89.05
74792;SHT30;63319;46.046;17.802;2024-02-26T06:54:46;10.09;88.15
74792;SHT30;63319;46.046;17.802;2024-02-26T06:57:51;9.96;88.57
74792;SHT30;63319;46.046;17.802;2024-02-26T07:00:53;9.85;88.82
74792;SHT30;63319;46.046;17.802;2024-02-26T07:03:56;9.75;89.49
74792;SHT30;63319;46.046;17.802;2024-02-26T07:07:00;9.92;89.06
74792;SHT30;63319;46.046;17.802;2024-02-26T07:10:03;9.92;89.03
74792;SHT30;63319;46.046;17.802;2024-02-26T07:13:08;9.95;89.36
74792;SHT30;63319;46.046;17.802;2024-02-26T07:16:12;9.92;89.37
74792;SHT30;63319;46.046;17.802;2024-02-26T07:19:15;10.05;87.77
74792;SHT30;63319;46.046;17.802;2024-02-26T07:22:18;10.05;88.99
74792;SHT30;63319;46.046;17.802;2024-02-26T07:25:21;9.85;88.35
74792;SHT30;63319;46.046;17.802;2024-02-26T07:28:24;9.81;90.30
74792;SHT30;63319;46.046;17.802;2024-02-26T07:31:27;9.88;89.59
74792;SHT30;63319;46.046;17.802;2024-02-26T07:34:30;10.05;88.74
74792;SHT30;63319;46.046;17.802;2024-02-26T07:37:33;9.71;90.29
74792;SHT30;63319;46.046;17.802;2024-02-26T07:40:36;9.81;89.92
74792;SHT30;63319;46.046;17.802;2024-02-26T07:43:49;10.03;89.48
74792;SHT30;63319;46.046;17.802;2024-02-26T07:46:51;10.27;87.91
74792;SHT30;63319;46.046;17.802;2024-02-26T07:49:54;9.99;89.55
74792;SHT30;63319;46.046;17.802;2024-02-26T07:52:57;9.75;89.38
74792;SHT30;63319;46.046;17.802;2024-02-26T07:56:01;10.40;87.92
74792;SHT30;63319;46.046;17.802;2024-02-26T07:59:04;11.19;84.64
74792;SHT30;63319;46.046;17.802;2024-02-26T08:02:07;11.71;82.35
74792;SHT30;63319;46.046;17.802;2024-02-26T08:05:10;11.90;83.00
74792;SHT30;63319;46.046;17.802;2024-02-26T08:08:13;12.19;81.14
74792;SHT30;63319;46.046;17.802;2024-02-26T08:11:16;12.66;79.41
74792;SHT30;63319;46.046;17.802;2024-02-26T08:14:18;13.49;75.14
74792;SHT30;63319;46.046;17.802;2024-02-26T08:17:21;13.04;77.13
74792;SHT30;63319;46.046;17.802;2024-02-26T08:20:24;11.47;82.21
74792;SHT30;63319;46.046;17.802;2024-02-26T08:23:27;11.46;83.16
74792;SHT30;63319;46.046;17.802;2024-02-26T08:26:30;11.94;81.08
74792;SHT30;63319;46.046;17.802;2024-02-26T08:29:34;14.60;71.97
74792;SHT30;63319;46.046;17.802;2024-02-26T08:32:36;16.74;65.61
74792;SHT30;63319;46.046;17.802;2024-02-26T08:35:40;20.27;56.07
74792;SHT30;63319;46.046;17.802;2024-02-26T08:38:43;20.64;53.35
74792;SHT30;63319;46.046;17.802;2024-02-26T08:41:46;19.76;54.34
74792;SHT30;63319;46.046;17.802;2024-02-26T08:44:48;17.46;61.26
74792;SHT30;63319;46.046;17.802;2024-02-26T08:47:51;19.94;54.60
74792;SHT30;63319;46.046;17.802;2024-02-26T08:50:54;19.71;53.60
74792;SHT30;63319;46.046;17.802;2024-02-26T08:53:58;21.05;50.23
74792;SHT30;63319;46.046;17.802;2024-02-26T08:57:01;20.51;51.40
74792;SHT30;63319;46.046;17.802;2024-02-26T09:00:05;20.57;50.80
74792;SHT30;63319;46.046;17.802;2024-02-26T09:03:08;21.16;49.85
74792;SHT30;63319;46.046;17.802;2024-02-26T09:06:11;21.10;48.70
74792;SHT30;63319;46.046;17.802;2024-02-26T09:09:17;20.55;49.79
74792;SHT30;63319;46.046;17.802;2024-02-26T09:12:20;20.50;51.64
74792;SHT30;63319;46.046;17.802;2024-02-26T09:15:23;21.90;47.45
74792;SHT30;63319;46.046;17.802;2024-02-26T09:18:27;20.78;51.72
74792;SHT30;63319;46.046;17.802;2024-02-26T09:21:32;21.57;51.47
74792;SHT30;63319;46.046;17.802;2024-02-26T09:24:35;22.43;50.92
74792;SHT30;63319;46.046;17.802;2024-02-26T09:27:38;24.93;40.61
74792;SHT30;63319;46.046;17.802;2024-02-26T09:30:45;23.87;42.28
74792;SHT30;63319;46.046;17.802;2024-02-26T09:33:48;23.15;45.13
74792;SHT30;63319;46.046;17.802;2024-02-26T09:36:51;24.30;42.66
74792;SHT30;63319;46.046;17.802;2024-02-26T09:40:02;24.04;43.82
74792;SHT30;63319;46.046;17.802;2024-02-26T09:43:08;23.10;42.75
74792;SHT30;63319;46.046;17.802;2024-02-26T09:46:15;20.96;48.78
74792;SHT30;63319;46.046;17.802;2024-02-26T09:49:21;21.83;44.90
74792;SHT30;63319;46.046;17.802;2024-02-26T09:52:27;24.85;39.80
74792;SHT30;63319;46.046;17.802;2024-02-26T09:55:31;24.34;42.09
74792;SHT30;63319;46.046;17.802;2024-02-26T09:58:34;25.29;38.92
74792;SHT30;63319;46.046;17.802;2024-02-26T10:01:38;24.81;40.57
74792;SHT30;63319;46.046;17.802;2024-02-26T10:04:47;22.42;43.58
74792;SHT30;63319;46.046;17.802;2024-02-26T10:07:54;23.19;45.08
74792;SHT30;63319;46.046;17.802;2024-02-26T10:10:59;24.03;41.87
74792;SHT30;63319;46.046;17.802;2024-02-26T10:14:03;23.21;43.30
74792;SHT30;63319;46.046;17.802;2024-02-26T10:17:07;23.39;40.42
74792;SHT30;63319;46.046;17.802;2024-02-26T10:20:13;24.25;41.78
74792;SHT30;63319;46.046;17.802;2024-02-26T10:23:22;24.88;39.97
74792;SHT30;63319;46.046;17.802;2024-02-26T10:26:26;25.06;37.48
74792;SHT30;63319;46.046;17.802;2024-02-26T10:29:29;25.57;38.20
74792;SHT30;63319;46.046;17.802;2024-02-26T10:32:35;26.67;34.39
74792;SHT30;63319;46.046;17.802;2024-02-26T10:35:39;24.33;38.01
74792;SHT30;63319;46.046;17.802;2024-02-26T10:38:46;24.67;39.02
74792;SHT30;63319;46.046;17.802;2024-02-26T10:41:50;25.27;36.43
74792;SHT30;63319;46.046;17.802;2024-02-26T10:44:54;24.33;38.59
74792;SHT30;63319;46.046;17.802;2024-02-26T10:47:58;24.81;37.59
74792;SHT30;63319;46.046;17.802;2024-02-26T10:51:03;24.81;37.56
74792;SHT30;63319;46.046;17.802;2024-02-26T10:54:07;25.06;38.54
74792;SHT30;63319;46.046;17.802;2024-02-26T10:57:15;26.22;36.72
74792;SHT30;63319;46.046;17.802;2024-02-26T11:00:21;24.79;38.48
74792;SHT30;63319;46.046;17.802;2024-02-26T11:03:26;24.13;39.48
74792;SHT30;63319;46.046;17.802;2024-02-26T11:06:30;22.79;40.39
74792;SHT30;63319;46.046;17.802;2024-02-26T11:09:37;23.35;40.08
74792;SHT30;63319;46.046;17.802;2024-02-26T11:12:47;25.39;36.89
74792;SHT30;63319;46.046;17.802;2024-02-26T11:15:54;25.78;35.30
74792;SHT30;63319;46.046;17.802;2024-02-26T11:19:00;26.87;34.85
74792;SHT30;63319;46.046;17.802;2024-02-26T11:22:04;26.83;34.26
74792;SHT30;63319;46.046;17.802;2024-02-26T11:25:23;25.68;34.87
74792;SHT30;63319;46.046;17.802;2024-02-26T11:28:28;26.73;34.24
74792;SHT30;63319;46.046;17.802;2024-02-26T11:31:32;24.31;38.03
74792;SHT30;63319;46.046;17.802;2024-02-26T11:34:40;22.64;41.31
74792;SHT30;63319;46.046;17.802;2024-02-26T11:37:54;24.27;37.51
74792;SHT30;63319;46.046;17.802;2024-02-26T11:40:59;24.02;37.49
74792;SHT30;63319;46.046;17.802;2024-02-26T11:44:02;22.96;40.06
74792;SHT30;63319;46.046;17.802;2024-02-26T11:47:18;23.42;39.98
74792;SHT30;63319;46.046;17.802;2024-02-26T11:50:34;25.02;36.23
74792;SHT30;63319;46.046;17.802;2024-02-26T11:53:46;24.37;38.45
74792;SHT30;63319;46.046;17.802;2024-02-26T11:56:57;25.10;36.84
74792;SHT30;63319;46.046;17.802;2024-02-26T12:03:13;28.61;30.90
74792;SHT30;63319;46.046;17.802;2024-02-26T12:06:18;27.71;32.80
74792;SHT30;63319;46.046;17.802;2024-02-26T12:09:40;26.83;33.61
74792;SHT30;63319;46.046;17.802;2024-02-26T12:12:44;26.83;33.73
74792;SHT30;63319;46.046;17.802;2024-02-26T12:18:57;25.31;37.10
74792;SHT30;63319;46.046;17.802;2024-02-26T12:22:00;25.99;36.03
74792;SHT30;63319;46.046;17.802;2024-02-26T12:25:03;28.29;31.79
74792;SHT30;63319;46.046;17.802;2024-02-26T12:28:06;27.18;33.52
74792;SHT30;63319;46.046;17.802;2024-02-26T12:31:10;27.28;32.54
74792;SHT30;63319;46.046;17.802;2024-02-26T12:34:13;25.71;36.23
74792;SHT30;63319;46.046;17.802;2024-02-26T12:37:17;26.90;33.11
74792;SHT30;63319;46.046;17.802;2024-02-26T12:40:20;26.06;34.82
74792;SHT30;63319;46.046;17.802;2024-02-26T12:43:23;27.48;32.67
74792;SHT30;63319;46.046;17.802;2024-02-26T12:46:27;27.04;33.96
74792;SHT30;63319;46.046;17.802;2024-02-26T12:49:30;26.77;35.12
74792;SHT30;63319;46.046;17.802;2024-02-26T12:52:36;26.35;36.17
74792;SHT30;63319;46.046;17.802;2024-02-26T12:55:40;26.08;35.90
74792;SHT30;63319;46.046;17.802;2024-02-26T12:58:44;27.48;33.26
74792;SHT30;63319;46.046;17.802;2024-02-26T13:01:48;26.91;35.10
74792;SHT30;63319;46.046;17.802;2024-02-26T13:04:51;26.04;37.29
74792;SHT30;63319;46.046;17.802;2024-02-26T13:07:55;26.26;34.81
74792;SHT30;63319;46.046;17.802;2024-02-26T13:11:01;26.88;33.52
74792;SHT30;63319;46.046;17.802;2024-02-26T13:14:04;25.85;35.76
74792;SHT30;63319;46.046;17.802;2024-02-26T13:17:10;25.10;36.32
74792;SHT30;63319;46.046;17.802;2024-02-26T13:20:25;26.21;35.70
74792;SHT30;63319;46.046;17.802;2024-02-26T13:23:28;26.22;35.27
74792;SHT30;63319;46.046;17.802;2024-02-26T13:26:31;23.55;40.01
74792;SHT30;63319;46.046;17.802;2024-02-26T13:29:34;26.52;35.03
74792;SHT30;63319;46.046;17.802;2024-02-26T13:32:39;26.63;36.01
74792;SHT30;63319;46.046;17.802;2024-02-26T13:35:42;26.31;36.15
74792;SHT30;63319;46.046;17.802;2024-02-26T13:38:53;25.94;35.36
74792;SHT30;63319;46.046;17.802;2024-02-26T13:41:57;24.33;38.93
74792;SHT30;63319;46.046;17.802;2024-02-26T13:45:01;22.90;40.97
74792;SHT30;63319;46.046;17.802;2024-02-26T13:48:06;21.92;43.56
74792;SHT30;63319;46.046;17.802;2024-02-26T13:51:09;19.24;49.40
74792;SHT30;63319;46.046;17.802;2024-02-26T13:54:12;20.24;47.78
74792;SHT30;63319;46.046;17.802;2024-02-26T13:57:19;21.15;44.96
74792;SHT30;63319;46.046;17.802;2024-02-26T14:00:22;19.94;48.40
74792;SHT30;63319;46.046;17.802;2024-02-26T14:03:25;19.96;48.91
74792;SHT30;63319;46.046;17.802;2024-02-26T14:06:29;22.01;43.27
74792;SHT30;63319;46.046;17.802;2024-02-26T14:09:34;22.41;42.87
74792;SHT30;63319;46.046;17.802;2024-02-26T14:12:50;20.91;46.03
74792;SHT30;63319;46.046;17.802;2024-02-26T14:15:53;20.57;46.47
74792;SHT30;63319;46.046;17.802;2024-02-26T14:18:56;19.87;49.16
74792;SHT30;63319;46.046;17.802;2024-02-26T14:21:59;20.54;47.29
74792;SHT30;63319;46.046;17.802;2024-02-26T14:25:02;20.34;48.23
74792;SHT30;63319;46.046;17.802;2024-02-26T14:28:05;19.69;49.57
74792;SHT30;63319;46.046;17.802;2024-02-26T14:31:09;19.71;49.76
74792;SHT30;63319;46.046;17.802;2024-02-26T14:34:13;20.98;46.50
74792;SHT30;63319;46.046;17.802;2024-02-26T14:37:16;20.48;47.18
74792;SHT30;63319;46.046;17.802;2024-02-26T14:40:19;19.85;49.31
74792;SHT30;63319;46.046;17.802;2024-02-26T14:43:22;19.32;50.81
74792;SHT30;63319;46.046;17.802;2024-02-26T14:46:24;18.79;52.27
74792;SHT30;63319;46.046;17.802;2024-02-26T14:49:27;17.80;54.68
74792;SHT30;63319;46.046;17.802;2024-02-26T14:52:32;17.53;56.18
74792;SHT30;63319;46.046;17.802;2024-02-26T14:55:35;17.28;57.71
74792;SHT30;63319;46.046;17.802;2024-02-26T14:58:40;17.22;56.99
74792;SHT30;63319;46.046;17.802;2024-02-26T15:01:43;17.28;57.24
74792;SHT30;63319;46.046;17.802;2024-02-26T15:04:49;17.12;58.43
74792;SHT30;63319;46.046;17.802;2024-02-26T15:07:52;16.91;59.87
74792;SHT30;63319;46.046;17.802;2024-02-26T15:10:55;17.01;58.55
74792;SHT30;63319;46.046;17.802;2024-02-26T15:13:57;16.98;58.63
74792;SHT30;63319;46.046;17.802;2024-02-26T15:17:01;16.56;60.13
74792;SHT30;63319;46.046;17.802;2024-02-26T15:20:04;16.61;60.22
74792;SHT30;63319;46.046;17.802;2024-02-26T15:23:11;16.59;60.79
74792;SHT30;63319;46.046;17.802;2024-02-26T15:26:14;16.49;61.78
74792;SHT30;63319;46.046;17.802;2024-02-26T15:29:17;16.29;60.59
74792;SHT30;63319;46.046;17.802;2024-02-26T15:32:21;16.40;60.46
74792;SHT30;63319;46.046;17.802;2024-02-26T15:35:23;16.26;61.42
74792;SHT30;63319;46.046;17.802;2024-02-26T15:38:26;16.36;60.84
74792;SHT30;63319;46.046;17.802;2024-02-26T15:41:30;16.12;61.89
74792;SHT30;63319;46.046;17.802;2024-02-26T15:44:33;15.89;63.22
74792;SHT30;63319;46.046;17.802;2024-02-26T15:47:36;15.72;65.13
74792;SHT30;63319;46.046;17.802;2024-02-26T15:50:39;15.59;64.73
74792;SHT30;63319;46.046;17.802;2024-02-26T15:53:45;15.48;65.61
74792;SHT30;63319;46.046;17.802;2024-02-26T15:56:48;15.48;65.21
74792;SHT30;63319;46.046;17.802;2024-02-26T15:59:55;15.51;65.97
74792;SHT30;63319;46.046;17.802;2024-02-26T16:03:13;15.54;66.00
74792;SHT30;63319;46.046;17.802;2024-02-26T16:06:22;15.57;66.88
74792;SHT30;63319;46.046;17.802;2024-02-26T16:09:28;15.43;66.98
74792;SHT30;63319;46.046;17.802;2024-02-26T16:12:39;15.51;67.15
74792;SHT30;63319;46.046;17.802;2024-02-26T16:15:46;15.24;66.04
74792;SHT30;63319;46.046;17.802;2024-02-26T16:18:50;15.09;67.03
74792;SHT30;63319;46.046;17.802;2024-02-26T16:21:54;14.98;69.22
74792;SHT30;63319;46.046;17.802;2024-02-26T16:24:57;14.90;69.65
74792;SHT30;63319;46.046;17.802;2024-02-26T16:28:00;14.95;69.78
74792;SHT30;63319;46.046;17.802;2024-02-26T16:31:04;14.73;69.81
74792;SHT30;63319;46.046;17.802;2024-02-26T16:34:07;14.61;70.08
74792;SHT30;63319;46.046;17.802;2024-02-26T16:37:11;14.73;69.94
74792;SHT30;63319;46.046;17.802;2024-02-26T16:40:14;14.67;69.53
74792;SHT30;63319;46.046;17.802;2024-02-26T16:43:18;14.45;70.17
74792;SHT30;63319;46.046;17.802;2024-02-26T16:46:21;14.13;71.64
74792;SHT30;63319;46.046;17.802;2024-02-26T16:49:24;14.06;72.52
74792;SHT30;63319;46.046;17.802;2024-02-26T16:52:27;13.99;72.33
74792;SHT30;63319;46.046;17.802;2024-02-26T16:55:30;13.96;72.62
74792;SHT30;63319;46.046;17.802;2024-02-26T16:58:33;13.85;73.27
74792;SHT30;63319;46.046;17.802;2024-02-26T17:01:36;13.77;73.20
74792;SHT30;63319;46.046;17.802;2024-02-26T17:04:39;13.72;73.83
74792;SHT30;63319;46.046;17.802;2024-02-26T17:07:42;13.61;74.12
74792;SHT30;63319;46.046;17.802;2024-02-26T17:10:47;13.46;74.05
74792;SHT30;63319;46.046;17.802;2024-02-26T17:13:50;13.37;74.15
74792;SHT30;63319;46.046;17.802;2024-02-26T17:16:53;13.17;75.30
74792;SHT30;63319;46.046;17.802;2024-02-26T17:19:56;13.22;74.55
74792;SHT30;63319;46.046;17.802;2024-02-26T17:23:00;13.17;74.25
74792;SHT30;63319;46.046;17.802;2024-02-26T17:26:03;13.08;74.76
74792;SHT30;63319;46.046;17.802;2024-02-26T17:29:09;13.15;74.36
74792;SHT30;63319;46.046;17.802;2024-02-26T17:32:13;12.98;74.64
74792;SHT30;63319;46.046;17.802;2024-02-26T17:35:18;13.06;74.44
74792;SHT30;63319;46.046;17.802;2024-02-26T17:38:21;13.22;74.48
74792;SHT30;63319;46.046;17.802;2024-02-26T17:41:24;13.08;74.39
74792;SHT30;63319;46.046;17.802;2024-02-26T17:44:53;12.77;75.33
74792;SHT30;63319;46.046;17.802;2024-02-26T17:47:56;12.75;75.22
74792;SHT30;63319;46.046;17.802;2024-02-26T17:50:59;12.70;75.16
74792;SHT30;63319;46.046;17.802;2024-02-26T17:54:02;12.90;74.15
74792;SHT30;63319;46.046;17.802;2024-02-26T17:57:06;13.28;73.57
74792;SHT30;63319;46.046;17.802;2024-02-26T18:00:09;13.04;74.16
74792;SHT30;63319;46.046;17.802;2024-02-26T18:03:14;12.86;74.66
74792;SHT30;63319;46.046;17.802;2024-02-26T18:06:17;12.76;74.65
74792;SHT30;63319;46.046;17.802;2024-02-26T18:09:20;12.67;74.75
74792;SHT30;63319;46.046;17.802;2024-02-26T18:12:23;12.63;75.10
74792;SHT30;63319;46.046;17.802;2024-02-26T18:15:29;12.48;75.18
74792;SHT30;63319;46.046;17.802;2024-02-26T18:18:35;12.38;75.71
74792;SHT30;63319;46.046;17.802;2024-02-26T18:21:38;12.28;76.19
74792;SHT30;63319;46.046;17.802;2024-02-26T18:24:41;12.22;76.24
74792;SHT30;63319;46.046;17.802;2024-02-26T18:27:44;12.15;76.56
74792;SHT30;63319;46.046;17.802;2024-02-26T18:30:48;12.10;76.89
74792;SHT30;63319;46.046;17.802;2024-02-26T18:33:52;12.04;76.87
74792;SHT30;63319;46.046;17.802;2024-02-26T18:36:55;11.95;77.36
74792;SHT30;63319;46.046;17.802;2024-02-26T18:39:59;11.87;77.33
74792;SHT30;63319;46.046;17.802;2024-02-26T18:43:04;11.91;77.41
74792;SHT30;63319;46.046;17.802;2024-02-26T18:46:07;11.95;77.44
74792;SHT30;63319;46.046;17.802;2024-02-26T18:49:11;12.02;77.19
74792;SHT30;63319;46.046;17.802;2024-02-26T18:52:15;12.11;76.74
74792;SHT30;63319;46.046;17.802;2024-02-26T18:55:20;12.15;76.29
74792;SHT30;63319;46.046;17.802;2024-02-26T18:58:24;12.24;76.07
74792;SHT30;63319;46.046;17.802;2024-02-26T19:01:28;12.49;75.76
74792;SHT30;63319;46.046;17.802;2024-02-26T19:04:37;12.40;75.89
74792;SHT30;63319;46.046;17.802;2024-02-26T19:07:41;12.45;76.25
74792;SHT30;63319;46.046;17.802;2024-02-26T19:10:45;12.48;75.38
74792;SHT30;63319;46.046;17.802;2024-02-26T19:13:50;12.29;76.51
74792;SHT30;63319;46.046;17.802;2024-02-26T19:16:55;12.18;77.25
74792;SHT30;63319;46.046;17.802;2024-02-26T19:20:00;12.06;77.81